createdAt,value
2023-02-01T00:02:56.709Z,4.37
2023-02-01T00:07:00.359Z,5.87
2023-02-01T00:11:05.768Z,4.70
2023-02-01T00:15:11.771Z,5.67
2023-02-01T00:19:17.556Z,5.43
2023-02-01T00:23:21.131Z,4.80
2023-02-01T00:27:24.880Z,5.27
2023-02-01T00:31:30.314Z,4.70
2023-02-01T00:35:35.792Z,4.53
2023-02-01T00:39:39.427Z,4.47
2023-02-01T00:43:43.492Z,5.93
2023-02-01T00:47:48.479Z,4.70
2023-02-01T00:51:52.255Z,4.43
2023-02-01T00:55:55.792Z,5.00
2023-02-01T00:59:59.558Z,5.37
2023-02-01T01:04:04.633Z,4.60
2023-02-01T01:08:08.219Z,4.20
2023-02-01T01:12:12.125Z,5.80
2023-02-01T01:16:16.062Z,5.43
2023-02-01T01:20:22.984Z,4.83
2023-02-01T01:24:26.872Z,4.43
2023-02-01T01:28:30.568Z,5.37
2023-02-01T01:32:34.109Z,5.13
2023-02-01T01:36:39.153Z,4.23
2023-02-01T01:40:46.817Z,4.10
2023-02-01T01:45:04.776Z,3.93
2023-02-01T01:49:13.757Z,5.00
2023-02-01T01:53:22.697Z,4.87
2023-02-01T01:57:29.576Z,3.97
2023-02-01T02:01:33.937Z,4.00
2023-02-01T02:05:37.783Z,4.10
2023-02-01T02:09:54.660Z,4.70
2023-02-01T02:14:05.678Z,3.10
2023-02-01T02:18:18.145Z,3.50
2023-02-01T02:22:47.754Z,3.43
2023-02-01T02:27:25.601Z,5.13
2023-02-01T02:31:57.605Z,2.80
2023-02-01T02:36:10.418Z,4.17
2023-02-01T02:40:22.400Z,3.20
2023-02-01T02:44:51.887Z,3.63
2023-02-01T02:49:03.063Z,3.63
2023-02-01T02:53:30.609Z,2.57
2023-02-01T02:57:55.602Z,4.00
2023-02-01T03:02:16.978Z,4.33
2023-02-01T03:06:21.001Z,4.17
2023-02-01T03:10:40.126Z,6.73
2023-02-01T03:14:46.349Z,3.53
2023-02-01T03:18:55.948Z,3.73
2023-02-01T03:23:01.578Z,2.93
2023-02-01T03:27:11.314Z,3.10
2023-02-01T03:31:15.281Z,3.80
2023-02-01T03:35:20.069Z,3.40
2023-02-01T03:39:29.770Z,3.27
2023-02-01T03:43:44.910Z,3.90
2023-02-01T03:47:52.538Z,2.40
2023-02-01T03:51:58.752Z,3.23
2023-02-01T03:56:02.577Z,3.13
2023-02-01T04:00:11.160Z,3.47
2023-02-01T04:04:21.077Z,3.10
2023-02-01T04:08:25.519Z,3.00
2023-02-01T04:12:29.063Z,2.63
2023-02-01T04:16:34.743Z,2.50
2023-02-01T04:20:38.537Z,2.30
2023-02-01T04:24:42.065Z,3.40
2023-02-01T04:28:45.764Z,2.50
2023-02-01T04:32:50.748Z,1.60
2023-02-01T04:36:54.425Z,2.60
2023-02-01T04:40:58.056Z,3.20
2023-02-01T04:45:01.696Z,2.70
2023-02-01T04:49:06.825Z,2.43
2023-02-01T04:53:10.406Z,2.33
2023-02-01T04:57:14.545Z,3.20
2023-02-01T05:01:18.036Z,2.67
2023-02-01T05:05:23.157Z,3.03
2023-02-01T05:09:26.907Z,16.60
2023-02-01T05:13:48.235Z,12.33
2023-02-01T05:17:51.831Z,5.40
2023-02-01T05:21:56.928Z,8.30
2023-02-01T05:26:04.219Z,5.90
2023-02-01T05:30:09.536Z,3.20
2023-02-01T05:34:13.152Z,3.67
2023-02-01T05:38:18.395Z,4.50
2023-02-01T05:42:22.043Z,3.03
2023-02-01T05:46:26.081Z,3.20
2023-02-01T05:50:29.739Z,5.00
2023-02-01T05:54:36.111Z,4.50
2023-02-01T05:58:39.780Z,4.60
2023-02-01T06:02:43.524Z,4.27
2023-02-01T06:06:47.242Z,3.90
2023-02-01T06:10:53.112Z,5.70
2023-02-01T06:14:56.702Z,4.20
2023-02-01T06:19:00.518Z,4.00
2023-02-01T06:23:06.139Z,4.93
2023-02-01T06:27:11.593Z,6.20
2023-02-01T06:31:15.491Z,4.77
2023-02-01T06:35:19.283Z,5.47
2023-02-01T06:39:22.879Z,5.80
2023-02-01T06:43:29.043Z,4.77
2023-02-01T06:47:32.614Z,4.00
2023-02-01T06:51:36.583Z,3.33
2023-02-01T06:55:40.215Z,4.27
2023-02-01T06:59:45.307Z,4.33
2023-02-01T07:03:51.046Z,5.73
2023-02-01T07:07:54.553Z,7.10
2023-02-01T07:11:58.125Z,5.90
2023-02-01T07:16:04.572Z,5.03
2023-02-01T07:20:09.859Z,9.30
2023-02-01T07:24:13.646Z,7.77
2023-02-01T07:28:17.822Z,9.20
2023-02-01T07:32:22.949Z,7.00
2023-02-01T07:36:27.061Z,8.13
2023-02-01T07:40:31.549Z,7.70
2023-02-01T07:44:35.232Z,6.90
2023-02-01T07:48:40.457Z,5.67
2023-02-01T07:52:44.109Z,6.97
2023-02-01T07:56:47.719Z,4.47
2023-02-01T08:01:08.935Z,3.97
2023-02-01T08:05:13.948Z,4.63
2023-02-01T08:09:17.744Z,3.80
2023-02-01T08:13:21.352Z,3.50
2023-02-01T08:17:25.381Z,7.50
2023-02-01T08:21:37.600Z,5.47
2023-02-01T08:25:41.364Z,5.07
2023-02-01T08:29:45.096Z,3.63
2023-02-01T08:33:51.914Z,5.60
2023-02-01T08:37:56.903Z,5.17
2023-02-01T08:42:20.386Z,5.90
2023-02-01T08:46:25.011Z,4.43
2023-02-01T08:50:28.992Z,5.27
2023-02-01T08:54:34.029Z,4.57
2023-02-01T08:58:37.733Z,5.03
2023-02-01T09:02:41.702Z,4.77
2023-02-01T09:06:45.278Z,5.03
2023-02-01T09:10:51.341Z,5.83
2023-02-01T09:14:54.896Z,4.60
2023-02-01T09:19:24.058Z,4.90
2023-02-01T09:23:23.572Z,5.10
2023-02-01T09:27:28.599Z,4.20
2023-02-01T09:31:32.960Z,5.27
2023-02-01T09:35:36.682Z,4.10
2023-02-01T09:39:40.247Z,5.00
2023-02-01T09:43:56.931Z,3.90
2023-02-01T09:48:04.879Z,2.60
2023-02-01T09:52:12.735Z,2.47
2023-02-01T09:56:24.071Z,3.30
2023-02-01T10:00:38.586Z,2.53
2023-02-01T10:04:42.829Z,2.70
2023-02-01T10:09:10.587Z,3.30
2023-02-01T10:13:37.906Z,3.53
2023-02-01T10:17:58.112Z,4.30
2023-02-01T10:22:06.379Z,4.17
2023-02-01T10:26:19.942Z,3.97
2023-02-01T10:30:25.660Z,4.80
2023-02-01T10:34:34.259Z,4.53
2023-02-01T10:38:38.133Z,5.20
2023-02-01T10:42:42.556Z,5.30
2023-02-01T10:46:46.375Z,4.07
2023-02-01T10:50:58.725Z,3.50
2023-02-01T10:55:31.105Z,5.30
2023-02-01T10:59:37.457Z,4.07
2023-02-01T11:03:45.122Z,3.30
2023-02-01T11:07:55.926Z,2.43
2023-02-01T11:12:01.325Z,1.87
2023-02-01T11:16:07.657Z,1.70
2023-02-01T11:20:18.583Z,2.43
2023-02-01T11:24:26.603Z,1.10
2023-02-01T11:28:34.858Z,1.30
2023-02-01T11:32:41.110Z,1.57
2023-02-01T11:36:47.852Z,1.50
2023-02-01T11:40:54.112Z,2.83
2023-02-01T11:45:21.946Z,1.60
2023-02-01T11:49:28.148Z,2.00
2023-02-01T11:53:53.341Z,1.63
2023-02-01T11:58:09.779Z,1.90
2023-02-01T12:02:49.789Z,1.90
2023-02-01T12:06:56.191Z,1.73
2023-02-01T12:11:18.650Z,1.90
2023-02-01T12:15:48.762Z,1.77
2023-02-01T12:20:06.036Z,1.20
2023-02-01T12:24:33.267Z,0.83
2023-02-01T12:28:56.643Z,0.60
2023-02-01T12:33:12.597Z,0.80
2023-02-01T12:37:25.556Z,0.70
2023-02-01T12:41:53.927Z,0.70
2023-02-01T12:46:04.529Z,0.60
2023-02-01T12:50:22.926Z,0.50
2023-02-01T12:54:41.456Z,0.70
2023-02-01T12:58:49.218Z,0.80
2023-02-01T13:03:02.631Z,0.60
2023-02-01T13:07:17.962Z,0.67
2023-02-01T13:11:27.032Z,1.00
2023-02-01T13:15:35.000Z,0.70
2023-02-01T13:19:48.117Z,0.50
2023-02-01T13:23:55.663Z,0.67
2023-02-01T13:28:03.190Z,0.90
2023-02-01T13:33:50.218Z,0.80
2023-02-01T13:37:25.227Z,0.60
2023-02-01T13:41:33.552Z,0.53
2023-02-01T13:45:44.926Z,0.90
2023-02-01T13:49:48.960Z,0.60
2023-02-01T13:53:52.642Z,0.60
2023-02-01T13:58:12.897Z,0.73
2023-02-01T14:02:52.167Z,0.90
2023-02-01T14:06:59.011Z,0.40
2023-02-01T14:11:03.575Z,0.60
2023-02-01T14:15:24.541Z,0.47
2023-02-01T14:19:30.199Z,0.57
2023-02-01T14:23:42.943Z,0.63
2023-02-01T14:27:46.854Z,1.33
2023-02-01T14:31:58.553Z,0.50
2023-02-01T14:36:08.414Z,0.70
2023-02-01T14:40:22.438Z,0.70
2023-02-01T14:44:29.612Z,0.67
2023-02-01T14:48:57.750Z,0.60
2023-02-01T14:53:13.656Z,0.90
2023-02-01T14:57:19.517Z,0.70
2023-02-01T15:01:25.701Z,0.67
2023-02-01T15:05:35.228Z,0.80
2023-02-01T15:09:41.483Z,0.83
2023-02-01T15:13:53.778Z,0.50
2023-02-01T15:17:59.828Z,0.70
2023-02-01T15:22:05.136Z,1.40
2023-02-01T15:26:08.983Z,1.30
2023-02-01T15:30:21.199Z,1.00
2023-02-01T15:34:24.876Z,0.70
2023-02-01T15:38:38.548Z,0.90
2023-02-01T15:42:54.959Z,0.70
2023-02-01T15:46:58.861Z,0.53
2023-02-01T15:51:03.235Z,0.77
2023-02-01T15:55:19.372Z,0.70
2023-02-01T15:59:26.740Z,1.00
2023-02-01T16:03:37.964Z,0.70
2023-02-01T16:07:41.716Z,0.73
2023-02-01T16:12:01.800Z,0.70
2023-02-01T16:16:09.195Z,0.90
2023-02-01T16:20:14.286Z,0.90
2023-02-01T16:24:17.835Z,2.13
2023-02-01T16:28:23.148Z,1.13
2023-02-01T16:32:27.749Z,1.20
2023-02-01T16:36:34.164Z,1.70
2023-02-01T16:40:38.382Z,0.80
2023-02-01T16:44:45.599Z,0.90
2023-02-01T16:48:54.541Z,2.90
2023-02-01T16:52:58.084Z,1.17
2023-02-01T16:57:05.163Z,1.00
2023-02-01T17:01:10.948Z,1.10
2023-02-01T17:05:15.001Z,0.83
2023-02-01T17:09:19.200Z,1.67
2023-02-01T17:13:24.005Z,1.43
2023-02-01T17:17:40.546Z,1.00
2023-02-01T17:21:49.488Z,0.60
2023-02-01T17:25:55.075Z,1.03
2023-02-01T17:30:01.206Z,1.17
2023-02-01T17:34:06.903Z,1.23
2023-02-01T17:38:13.938Z,0.93
2023-02-01T17:42:19.682Z,1.10
2023-02-01T17:46:27.393Z,1.93
2023-02-01T17:50:37.662Z,1.23
2023-02-01T17:54:41.840Z,1.87
2023-02-01T17:58:51.619Z,1.17
2023-02-01T18:02:57.283Z,1.17
2023-02-01T18:07:03.146Z,1.70
2023-02-01T18:11:11.758Z,1.40
2023-02-01T18:15:19.795Z,1.90
2023-02-01T18:19:28.260Z,2.00
2023-02-01T18:23:34.155Z,2.13
2023-02-01T18:27:39.630Z,1.80
2023-02-01T18:31:48.080Z,1.83
2023-02-01T18:35:53.761Z,2.93
2023-02-01T18:40:01.932Z,2.00
2023-02-01T18:44:07.539Z,2.63
2023-02-01T18:48:16.252Z,2.30
2023-02-01T18:52:21.243Z,2.23
2023-02-01T18:56:35.111Z,2.70
2023-02-01T19:00:42.817Z,1.70
2023-02-01T19:04:48.024Z,2.23
2023-02-01T19:08:55.276Z,2.80
2023-02-01T19:13:02.016Z,2.10
2023-02-01T19:17:07.622Z,1.80
2023-02-01T19:21:14.694Z,2.50
2023-02-01T19:25:22.451Z,2.50
2023-02-01T19:29:29.845Z,3.20
2023-02-01T19:33:36.659Z,3.93
2023-02-01T19:37:44.621Z,2.57
2023-02-01T19:41:48.853Z,2.27
2023-02-01T19:45:56.178Z,1.80
2023-02-01T19:50:03.650Z,2.23
2023-02-01T19:54:09.575Z,2.97
2023-02-01T19:58:17.414Z,3.30
2023-02-01T20:02:24.330Z,3.37
2023-02-01T20:06:30.568Z,3.50
2023-02-01T20:10:35.220Z,2.33
2023-02-01T20:14:41.897Z,3.47
2023-02-01T20:18:50.782Z,2.90
2023-02-01T20:22:56.346Z,3.27
2023-02-01T20:27:03.927Z,3.00
2023-02-01T20:31:11.372Z,3.23
2023-02-01T20:35:17.941Z,2.10
2023-02-01T20:39:23.654Z,2.93
2023-02-01T20:43:28.909Z,2.67
2023-02-01T20:47:36.840Z,2.47
2023-02-01T20:51:43.290Z,2.50
2023-02-01T20:55:49.097Z,2.50
2023-02-01T20:59:54.663Z,2.90
2023-02-01T21:03:59.788Z,2.93
2023-02-01T21:08:05.681Z,2.03
2023-02-01T21:12:10.479Z,2.50
2023-02-01T21:16:17.168Z,2.07
2023-02-01T21:20:21.681Z,2.70
2023-02-01T21:24:28.469Z,2.60
2023-02-01T21:28:35.507Z,2.10
2023-02-01T21:32:39.402Z,3.00
2023-02-01T21:36:43.367Z,3.70
2023-02-01T21:41:09.980Z,3.20
2023-02-01T21:45:15.787Z,3.33
2023-02-01T21:49:21.060Z,2.30
2023-02-01T21:53:25.161Z,1.20
2023-02-01T21:57:31.383Z,1.50
2023-02-01T22:01:35.174Z,1.57
2023-02-01T22:05:39.038Z,1.10
2023-02-01T22:09:42.613Z,1.20
2023-02-01T22:13:47.754Z,1.70
2023-02-01T22:17:51.336Z,1.50
2023-02-01T22:21:55.175Z,0.90
2023-02-01T22:26:01.513Z,1.63
2023-02-01T22:30:08.129Z,1.43
2023-02-01T22:34:12.725Z,1.57
2023-02-01T22:38:16.535Z,1.27
2023-02-01T22:42:20.081Z,1.40
2023-02-01T22:46:26.593Z,2.80
2023-02-01T22:50:30.406Z,1.37
2023-02-01T22:54:34.081Z,1.80
2023-02-01T22:58:37.602Z,2.40
2023-02-01T23:02:45.287Z,2.53
2023-02-01T23:06:50.796Z,1.97
2023-02-01T23:11:00.439Z,2.47
2023-02-01T23:15:06.797Z,2.97
2023-02-01T23:19:11.784Z,2.40
2023-02-01T23:23:15.605Z,2.13
2023-02-01T23:27:19.177Z,2.50
2023-02-01T23:31:24.531Z,2.60
2023-02-01T23:35:29.510Z,2.27
2023-02-01T23:39:33.902Z,2.97
2023-02-01T23:43:55.317Z,1.50
2023-02-01T23:47:58.932Z,2.40
2023-02-01T23:52:04.084Z,1.73
2023-02-01T23:56:08.720Z,1.87
